Time;durP1;ratioP1;P1;durP2;ratioP2;P2;SDS_P1;SDS_P2;PMS_P1;PMS_P2;Temp;Humidity;BMP_temperature;BMP_pressure;BME280_temperature;BME280_humidity;BME280_pressure;Samples;Min_cycle;Max_cycle;Signal;HPM_P1;HPM_P2
2024/01/04 02:11:48;;;;;;;;;;;;;;;;;;;;;
2024/01/04 02:15:10;;;;;;;44.92;5.88;;;;;;;;;;6079120;23;20018;-87
2024/01/04 02:49:48;;;;;;;49.90;8.02;;;;;;;;;;6082607;23;20021;-89
2024/01/04 02:52:26;;;;;;;59.28;8.15;;;;;;;;;;6178225;23;20039;-89
2024/01/04 02:55:06;;;;;;;61.72;7.63;;;;;;;;;;6152098;23;20020;-89
2024/01/04 02:58:09;;;;;;;;;;;;;;;;;;;;;
2024/01/04 03:01:41;;;;;;;49.83;7.65;;;;;;;;;;6085164;23;20104;-89
2024/01/04 03:04:11;;;;;;;48.10;5.28;;;;;;;;;;6193644;23;20051;-89
2024/01/04 03:06:43;;;;;;;40.78;6.25;;;;;;;;;;6193939;23;20016;-89
2024/01/04 03:09:10;;;;;;;43.85;5.47;;;;;;;;;;6193420;23;20071;-88
2024/01/04 03:11:37;;;;;;;48.90;7.30;;;;;;;;;;6194869;23;20040;-88
2024/01/04 03:14:05;;;;;;;40.65;6.05;;;;;;;;;;6168895;23;20380;-87
2024/01/04 03:16:32;;;;;;;46.78;5.68;;;;;;;;;;6169247;23;20134;-88
2024/01/04 03:18:59;;;;;;;42.53;5.53;;;;;;;;;;6169721;23;20032;-88
2024/01/04 03:21:26;;;;;;;39.75;6.05;;;;;;;;;;6175171;22;20024;-89
2024/01/04 03:23:53;;;;;;;43.78;5.43;;;;;;;;;;6196379;23;20371;-88
2024/01/04 03:26:20;;;;;;;41.92;5.55;;;;;;;;;;6194870;22;20063;-88
2024/01/04 03:28:47;;;;;;;57.45;5.82;;;;;;;;;;6196350;23;20016;-89
2024/01/04 03:31:17;;;;;;;52.10;6.50;;;;;;;;;;6194970;22;20402;-88
2024/01/04 03:33:56;;;;;;;;;;;;;;;;;;;;;
2024/01/04 03:36:33;;;;;;;54.53;7.47;;;;;;;;;;6214562;22;20333;-89
2024/01/04 03:39:12;;;;;;;49.92;6.95;;;;;;;;;;6188639;23;20016;-89
2024/01/04 03:41:54;;;;;;;50.70;6.88;;;;;;;;;;6167786;22;20070;-89
2024/01/04 03:44:32;;;;;;;52.03;6.53;;;;;;;;;;6236285;22;20016;-88
2024/01/04 03:47:07;;;;;;;60.42;8.10;;;;;;;;;;6249026;22;20095;-89
2024/01/04 03:50:05;;;;;;;62.55;8.40;;;;;;;;;;6203407;22;20317;-89
2024/01/04 03:52:40;;;;;;;62.58;8.93;;;;;;;;;;6180882;22;20020;-88
2024/01/04 03:55:07;;;;;;;77.65;9.25;;;;;;;;;;6245214;22;20347;-88
2024/01/04 03:57:51;;;;;;;77.90;8.93;;;;;;;;;;6234812;22;20027;-89
2024/01/04 04:00:28;;;;;;;77.22;9.32;;;;;;;;;;6248136;22;20022;-89
2024/01/04 04:03:12;;;;;;;72.78;9.20;;;;;;;;;;6239261;22;20019;-88
2024/01/04 04:05:44;;;;;;;77.75;8.98;;;;;;;;;;6248972;22;20022;-89
2024/01/04 04:08:12;;;;;;;65.72;9.35;;;;;;;;;;6247240;22;20023;-89
2024/01/04 04:10:42;;;;;;;71.90;9.45;;;;;;;;;;6250152;22;20087;-88
2024/01/04 04:13:09;;;;;;;105.72;9.70;;;;;;;;;;6249136;22;20020;-88
2024/01/04 04:15:36;;;;;;;74.28;8.63;;;;;;;;;;6249522;22;20065;-88
2024/01/04 04:18:06;;;;;;;79.55;9.05;;;;;;;;;;6249847;22;20447;-88
2024/01/04 04:20:34;;;;;;;75.30;9.63;;;;;;;;;;6229140;23;20030;-88
2024/01/04 04:23:04;;;;;;;83.93;9.10;;;;;;;;;;6218962;22;20066;-87
2024/01/04 04:25:36;;;;;;;80.03;10.30;;;;;;;;;;6218722;23;20016;-89
2024/01/04 04:28:06;;;;;;;101.43;11.43;;;;;;;;;;6219354;22;20020;-89
2024/01/04 04:30:51;;;;;;;71.95;8.70;;;;;;;;;;6198649;22;20012;-88
2024/01/04 04:33:21;;;;;;;86.53;10.38;;;;;;;;;;6219202;22;20020;-89
2024/01/04 04:35:52;;;;;;;84.03;9.52;;;;;;;;;;6249559;22;20015;-89
2024/01/04 04:38:38;;;;;;;78.15;11.38;;;;;;;;;;6239100;22;20019;-88
2024/01/04 04:41:06;;;;;;;70.93;9.13;;;;;;;;;;6233805;22;20019;-88
2024/01/04 04:43:44;;;;;;;80.53;9.50;;;;;;;;;;6245811;22;20025;-88
2024/01/04 04:46:23;;;;;;;80.20;10.10;;;;;;;;;;6232549;22;20035;-89
2024/01/04 04:48:56;;;;;;;80.03;10.35;;;;;;;;;;6218274;22;20386;-89
2024/01/04 04:51:32;;;;;;;80.05;8.90;;;;;;;;;;6222285;22;20023;-88
2024/01/04 04:54:06;;;;;;;;;;;;;;;;;;6228202;22;20020;-88
2024/01/04 04:56:34;;;;;;;64.30;9.13;;;;;;;;;;6249247;22;19983;-88
2024/01/04 04:59:04;;;;;;;85.03;9.98;;;;;;;;;;6274413;22;20016;-88
2024/01/04 05:01:31;;;;;;;95.50;10.73;;;;;;;;;;6238593;22;20371;-88
2024/01/04 05:04:04;;;;;;;99.53;11.73;;;;;;;;;;6232756;22;20016;-88
2024/01/04 05:06:35;;;;;;;74.15;9.73;;;;;;;;;;6225382;22;20023;-88
2024/01/04 05:09:07;;;;;;;79.60;10.38;;;;;;;;;;6238909;22;20069;-88
2024/01/04 05:11:34;;;;;;;67.78;8.00;;;;;;;;;;6249340;22;20020;-88
2024/01/04 05:14:03;;;;;;;65.05;9.20;;;;;;;;;;6260528;22;20039;-88
2024/01/04 05:16:31;;;;;;;58.33;7.22;;;;;;;;;;6248141;22;20011;-88
2024/01/04 05:19:00;;;;;;;63.80;9.00;;;;;;;;;;6248295;22;20027;-88
2024/01/04 05:21:33;;;;;;;58.10;7.82;;;;;;;;;;6209787;22;20043;-88
2024/01/04 05:24:05;;;;;;;54.22;6.82;;;;;;;;;;6248130;22;20016;-88
2024/01/04 05:26:41;;;;;;;61.05;7.63;;;;;;;;;;6239407;22;20011;-88
2024/01/04 05:29:22;;;;;;;48.70;7.38;;;;;;;;;;6231754;22;20034;-88
2024/01/04 05:32:01;;;;;;;62.10;6.22;;;;;;;;;;6215778;22;20047;-88
2024/01/04 05:34:42;;;;;;;66.77;8.70;;;;;;;;;;6222170;22;20101;-89
2024/01/04 05:37:17;;;;;;;68.60;7.57;;;;;;;;;;6208618;22;20034;-89
2024/01/04 05:40:13;;;;;;;;;;;;;;;;;;;;;
2024/01/04 05:43:29;;;;;;;;;;;;;;;;;;;;;
2024/01/04 05:46:17;;;;;;;75.40;8.45;;;;;;;;;;6227772;22;20374;-88
2024/01/04 05:49:38;;;;;;;66.70;9.05;;;;;;;;;;6213642;23;20042;-89
2024/01/04 05:53:38;;;;;;;;;;;;;;;;;;;;;
2024/01/04 06:14:52;;;;;;;70.27;8.77;;;;;;;;;;6224714;22;1477815;-89
2024/01/04 06:17:25;;;;;;;59.67;6.40;;;;;;;;;;6190461;22;20020;-91
2024/01/04 06:23:15;;;;;;;60.90;6.68;;;;;;;;;;6094615;23;20018;-89
2024/01/04 06:26:24;;;;;;;61.08;6.28;;;;;;;;;;6069162;23;20017;-87
2024/01/04 06:29:44;;;;;;;46.95;5.68;;;;;;;;;;6032816;23;20243;-87
2024/01/04 06:32:37;;;;;;;53.55;6.68;;;;;;;;;;6066789;23;20024;-89
2024/01/04 06:35:26;;;;;;;44.80;5.35;;;;;;;;;;6060469;23;20022;-89
2024/01/04 06:37:56;;;;;;;45.70;6.40;;;;;;;;;;6081854;23;20096;-88
2024/01/04 06:40:36;;;;;;;;;;;;;;;;;;;;;
2024/01/04 06:43:30;;;;;;;51.97;4.53;;;;;;;;;;6115518;23;20109;-89
2024/01/04 06:46:15;;;;;;;40.25;6.32;;;;;;;;;;6069773;23;20018;-86
2024/01/04 06:48:47;;;;;;;53.75;7.20;;;;;;;;;;6092145;23;20017;-87
2024/01/04 06:51:18;;;;;;;53.33;7.50;;;;;;;;;;6092482;23;20155;-87
2024/01/04 06:53:51;;;;;;;51.50;7.35;;;;;;;;;;6082331;23;20077;-87
2024/01/04 06:56:19;;;;;;;53.00;8.80;;;;;;;;;;6067336;23;20014;-88
2024/01/04 06:58:59;;;;;;;;;;;;;;;;;;;;;
2024/01/04 07:01:34;;;;;;;50.25;7.05;;;;;;;;;;6243269;22;20015;-86
2024/01/04 07:04:01;;;;;;;46.10;8.05;;;;;;;;;;6231126;22;20015;-88
2024/01/04 07:06:34;;;;;;;52.30;7.97;;;;;;;;;;6230522;22;20069;-89
2024/01/04 07:09:01;;;;;;;52.78;6.03;;;;;;;;;;6231157;22;20035;-88
2024/01/04 07:11:30;;;;;;;50.47;5.70;;;;;;;;;;6216283;22;20019;-86
2024/01/04 07:13:57;;;;;;;54.45;6.88;;;;;;;;;;6243827;22;20035;-86
2024/01/04 07:16:27;;;;;;;53.38;5.90;;;;;;;;;;6271023;22;20070;-87
2024/01/04 07:18:59;;;;;;;59.60;7.28;;;;;;;;;;6280204;22;20011;-87
2024/01/04 07:21:27;;;;;;;57.30;6.82;;;;;;;;;;6265383;22;20351;-86
2024/01/04 07:23:59;;;;;;;57.15;7.18;;;;;;;;;;6280208;22;20817;-87
2024/01/04 07:26:31;;;;;;;61.67;6.47;;;;;;;;;;6278907;22;20023;-86
2024/01/04 07:29:00;;;;;;;53.35;7.07;;;;;;;;;;6269244;22;20058;-88
2024/01/04 07:31:28;;;;;;;61.50;6.63;;;;;;;;;;6279756;22;20323;-87
2024/01/04 07:33:59;;;;;;;76.72;7.07;;;;;;;;;;6280648;22;20015;-88
2024/01/04 07:36:29;;;;;;;72.45;8.20;;;;;;;;;;6280265;22;20482;-85
2024/01/04 07:38:58;;;;;;;56.03;6.25;;;;;;;;;;6280471;22;20011;-88
2024/01/04 07:41:25;;;;;;;66.20;6.18;;;;;;;;;;6280047;22;20019;-86
2024/01/04 07:43:52;;;;;;;56.97;6.28;;;;;;;;;;6280164;22;20547;-88
2024/01/04 07:46:19;;;;;;;55.72;6.45;;;;;;;;;;6278446;22;20020;-86
2024/01/04 07:48:46;;;;;;;67.05;6.13;;;;;;;;;;6280451;22;20505;-86
2024/01/04 07:51:17;;;;;;;72.75;7.18;;;;;;;;;;6278844;22;20011;-88
2024/01/04 07:53:45;;;;;;;61.38;6.63;;;;;;;;;;6280237;22;20015;-86
2024/01/04 07:56:13;;;;;;;65.97;6.78;;;;;;;;;;6279759;22;20087;-88
2024/01/04 07:58:40;;;;;;;70.18;8.05;;;;;;;;;;6279508;22;20489;-88
2024/01/04 08:01:16;;;;;;;56.70;5.68;;;;;;;;;;6278242;22;20368;-87
2024/01/04 08:03:59;;;;;;;53.60;5.68;;;;;;;;;;6282049;22;20087;-86
2024/01/04 08:06:37;;;;;;;52.13;5.38;;;;;;;;;;6267457;22;20019;-88
2024/01/04 08:09:04;;;;;;;45.65;5.05;;;;;;;;;;6279074;22;20432;-87
2024/01/04 08:11:31;;;;;;;51.15;5.13;;;;;;;;;;6267785;22;20068;-88
2024/01/04 08:13:58;;;;;;;57.38;6.32;;;;;;;;;;6279127;22;20379;-88
2024/01/04 08:16:26;;;;;;;56.45;6.20;;;;;;;;;;6278365;22;20019;-86
2024/01/04 08:18:59;;;;;;;54.22;5.53;;;;;;;;;;6279710;22;20008;-87
2024/01/04 08:21:46;;;;;;;54.30;6.18;;;;;;;;;;6127716;23;20099;-86
2024/01/04 08:24:13;;;;;;;57.03;5.75;;;;;;;;;;6144283;23;20104;-89
2024/01/04 08:26:52;;;;;;;64.10;6.03;;;;;;;;;;6162789;23;20017;-90
2024/01/04 08:29:27;;;;;;;48.55;6.70;;;;;;;;;;6115520;23;20405;-89
2024/01/04 08:31:59;;;;;;;56.35;5.82;;;;;;;;;;6162418;23;20402;-88
2024/01/04 08:34:27;;;;;;;61.45;6.82;;;;;;;;;;6147351;23;20449;-89
2024/01/04 08:37:03;;;;;;;66.97;7.50;;;;;;;;;;6124268;23;20013;-89
2024/01/04 08:39:45;;;;;;;61.00;7.25;;;;;;;;;;6152430;23;20088;-88
2024/01/04 08:42:19;;;;;;;71.45;7.57;;;;;;;;;;6161257;23;20030;-89
2024/01/04 08:44:50;;;;;;;51.15;5.88;;;;;;;;;;6130684;23;20013;-88
2024/01/04 08:47:18;;;;;;;;;;;;;;;;;;6161409;23;20016;-88
2024/01/04 08:49:46;;;;;;;78.43;7.55;;;;;;;;;;6162074;23;19939;-88
2024/01/04 08:52:13;;;;;;;78.20;7.75;;;;;;;;;;6160296;23;20021;-88
2024/01/04 08:54:41;;;;;;;66.88;7.57;;;;;;;;;;6161710;23;20036;-88
2024/01/04 08:57:08;;;;;;;62.58;6.32;;;;;;;;;;6160937;23;20020;-89
2024/01/04 08:59:39;;;;;;;55.53;6.88;;;;;;;;;;6249350;22;20278;-89
2024/01/04 09:02:07;;;;;;;69.75;7.60;;;;;;;;;;6243404;22;20007;-88
2024/01/04 09:04:40;;;;;;;58.03;6.70;;;;;;;;;;6279159;22;20042;-89
2024/01/04 09:07:18;;;;;;;56.40;6.10;;;;;;;;;;6265561;22;20117;-88
2024/01/04 09:09:50;;;;;;;54.30;6.93;;;;;;;;;;6280385;22;20011;-88
2024/01/04 09:12:17;;;;;;;62.20;7.60;;;;;;;;;;6278072;22;20369;-88
2024/01/04 09:14:47;;;;;;;59.28;6.78;;;;;;;;;;6278603;22;20019;-88
2024/01/04 09:17:17;;;;;;;71.30;8.30;;;;;;;;;;6277996;22;20042;-88
2024/01/04 09:19:51;;;;;;;56.05;6.88;;;;;;;;;;6265134;22;20333;-86
2024/01/04 09:22:22;;;;;;;66.00;7.07;;;;;;;;;;6278110;22;20017;-88
2024/01/04 09:24:50;;;;;;;53.28;6.28;;;;;;;;;;6278976;22;20007;-85
2024/01/04 09:27:20;;;;;;;51.10;6.00;;;;;;;;;;6278693;22;20521;-87
2024/01/04 09:29:53;;;;;;;62.20;8.00;;;;;;;;;;6279791;22;20023;-87
2024/01/04 09:32:30;;;;;;;54.60;6.80;;;;;;;;;;6239870;22;20023;-89
2024/01/04 09:35:01;;;;;;;62.22;7.90;;;;;;;;;;6279269;22;20011;-88
2024/01/04 09:37:32;;;;;;;63.78;7.63;;;;;;;;;;6237926;22;20023;-89
2024/01/04 09:40:00;;;;;;;65.40;8.07;;;;;;;;;;6278442;22;20020;-88
2024/01/04 09:42:38;;;;;;;59.08;6.68;;;;;;;;;;6266476;22;20019;-88
2024/01/04 09:45:14;;;;;;;47.65;6.65;;;;;;;;;;6242009;22;20037;-88
2024/01/04 09:47:46;;;;;;;55.50;6.85;;;;;;;;;;6256167;22;20061;-88
2024/01/04 09:50:13;;;;;;;;;;;;;;;;;;6280697;22;20012;-89
2024/01/04 09:52:45;;;;;;;51.55;6.63;;;;;;;;;;6288173;22;20002;-89
2024/01/04 09:55:30;;;;;;;54.60;7.72;;;;;;;;;;6294151;22;20007;-88
2024/01/04 09:57:59;;;;;;;48.08;7.88;;;;;;;;;;6273152;22;20016;-88
2024/01/04 10:00:34;;;;;;;57.83;7.65;;;;;;;;;;6281704;22;20435;-88
2024/01/04 10:03:12;;;;;;;51.28;6.40;;;;;;;;;;6276281;22;20061;-89
2024/01/04 10:05:42;;;;;;;40.78;5.32;;;;;;;;;;6247933;22;20011;-88
2024/01/04 10:08:33;;;;;;;55.90;6.65;;;;;;;;;;6259018;22;20413;-88
2024/01/04 10:11:28;;;;;;;45.65;5.38;;;;;;;;;;6249065;22;20015;-88
2024/01/04 10:13:58;;;;;;;42.28;5.00;;;;;;;;;;6279447;22;20030;-88
2024/01/04 10:16:30;;;;;;;42.08;4.20;;;;;;;;;;6276961;22;20019;-88
2024/01/04 10:19:20;;;;;;;36.63;4.38;;;;;;;;;;6242514;22;20463;-88
2024/01/04 10:21:52;;;;;;;31.08;3.90;;;;;;;;;;6233195;22;20022;-88
2024/01/04 10:24:21;;;;;;;32.92;3.92;;;;;;;;;;6235083;22;20360;-88
2024/01/04 10:27:06;;;;;;;24.25;4.07;;;;;;;;;;6258980;22;20069;-89
2024/01/04 10:32:59;;;;;;;26.95;3.40;;;;;;;;;;6240707;22;20098;-89
2024/01/04 10:36:38;;;;;;;;;;;;;;;;;;;;;
2024/01/04 10:39:39;;;;;;;40.45;4.03;;;;;;;;;;6159115;22;20023;-90
2024/01/04 10:51:21;;;;;;;;;;;;;;;;;;;;;
2024/01/04 10:53:58;;;;;;;37.20;4.57;;;;;;;;;;5965472;23;20023;-88
2024/01/04 10:57:09;;;;;;;33.17;5.00;;;;;;;;;;6032342;23;20104;-88
2024/01/04 10:59:43;;;;;;;41.95;5.53;;;;;;;;;;6156438;23;20028;-88
2024/01/04 11:02:18;;;;;;;44.15;5.38;;;;;;;;;;6196735;22;20497;-89
2024/01/04 11:04:48;;;;;;;42.40;5.75;;;;;;;;;;6258245;22;20015;-89
2024/01/04 11:07:22;;;;;;;53.38;5.22;;;;;;;;;;6266894;22;20011;-89
2024/01/04 11:10:33;;;;;;;;;;;;;;;;;;;;;
2024/01/04 11:13:24;;;;;;;45.55;5.93;;;;;;;;;;6251931;22;20042;-90
2024/01/04 11:16:22;;;;;;;47.28;6.97;;;;;;;;;;6277019;22;20509;-87
2024/01/04 11:19:27;;;;;;;54.95;6.90;;;;;;;;;;6267669;22;20015;-88
2024/01/04 11:22:29;;;;;;;48.55;5.95;;;;;;;;;;6279892;22;20030;-88
2024/01/04 11:25:30;;;;;;;51.30;6.13;;;;;;;;;;6279288;22;20015;-86
2024/01/04 11:28:04;;;;;;;56.50;6.20;;;;;;;;;;6279305;22;20086;-89
2024/01/04 11:31:42;;;;;;;43.38;5.40;;;;;;;;;;6303779;22;20019;-88
2024/01/04 11:34:11;;;;;;;56.40;6.72;;;;;;;;;;6278778;22;20328;-87
2024/01/04 11:36:39;;;;;;;39.90;5.78;;;;;;;;;;6265816;22;20064;-88
2024/01/04 11:39:26;;;;;;;48.22;6.47;;;;;;;;;;6263336;22;20057;-90
2024/01/04 11:42:20;;;;;;;46.53;6.28;;;;;;;;;;6281744;22;20092;-88
2024/01/04 11:44:50;;;;;;;44.45;5.82;;;;;;;;;;6279620;22;20015;-88
2024/01/04 11:47:28;;;;;;;46.28;6.07;;;;;;;;;;6263929;22;20022;-89
2024/01/04 11:50:00;;;;;;;47.53;6.50;;;;;;;;;;6261143;22;20310;-90
2024/01/04 11:52:41;;;;;;;39.42;6.20;;;;;;;;;;6246935;22;20015;-87
2024/01/04 11:55:08;;;;;;;53.25;6.78;;;;;;;;;;6274397;22;20019;-87
2024/01/04 11:57:41;;;;;;;45.05;5.43;;;;;;;;;;6279082;22;20073;-88
2024/01/04 12:00:15;;;;;;;36.03;5.78;;;;;;;;;;6279700;22;20015;-88
2024/01/04 12:02:42;;;;;;;46.83;6.28;;;;;;;;;;6279206;22;20113;-88
2024/01/04 12:05:18;;;;;;;54.33;6.20;;;;;;;;;;6278939;22;20023;-88
2024/01/04 12:07:45;;;;;;;56.97;7.28;;;;;;;;;;6279531;22;20072;-88
2024/01/04 12:10:17;;;;;;;57.58;7.00;;;;;;;;;;6278202;22;20019;-89
2024/01/04 12:12:50;;;;;;;58.95;7.85;;;;;;;;;;6279440;22;20019;-89
2024/01/04 12:15:48;;;;;;;;;;;;;;;;;;;;;
2024/01/04 12:18:36;;;;;;;;;;;;;;;;;;;;;
2024/01/04 12:21:41;;;;;;;26.65;3.80;;;;;;;;;;6222159;22;20078;-89
2024/01/04 12:24:42;;;;;;;;;;;;;;;;;;;;;
2024/01/04 12:27:52;;;;;;;;;;;;;;;;;;;;;
2024/01/04 12:31:24;;;;;;;;;;;;;;;;;;;;;
2024/01/04 12:35:02;;;;;;;29.70;4.47;;;;;;;;;;6021486;23;20030;-89
2024/01/04 12:41:48;;;;;;;14.13;3.08;;;;;;;;;;5704554;24;20028;-89
2024/01/04 12:45:09;;;;;;;;;;;;;;;;;;;;;
2024/01/04 12:51:26;;;;;;;12.55;2.25;;;;;;;;;;5787812;24;20026;-89
2024/01/04 12:54:06;;;;;;;15.15;2.65;;;;;;;;;;5723588;24;20382;-89
2024/01/04 12:57:11;;;;;;;18.42;2.85;;;;;;;;;;5690854;24;20066;-89
2024/01/04 12:59:54;;;;;;;27.48;3.70;;;;;;;;;;5761832;24;20069;-90
2024/01/04 13:02:59;;;;;;;;;;;;;;;;;;;;;
2024/01/04 13:06:33;;;;;;;23.40;3.22;;;;;;;;;;5889335;24;20438;-88
2024/01/04 13:09:31;;;;;;;21.17;3.65;;;;;;;;;;5988378;23;20420;-89
2024/01/04 13:12:43;;;;;;;25.17;4.20;;;;;;;;;;5982664;23;20027;-89
2024/01/04 13:16:11;;;;;;;;;;;;;;;;;;;;;
2024/01/04 13:19:38;;;;;;;24.98;3.55;;;;;;;;;;6005512;23;20026;-91
2024/01/04 13:24:02;;;;;;;;;;;;;;;;;;;;;
2024/01/04 13:35:27;;;;;;;;;;;;;;;;;;;;;
2024/01/04 13:55:33;;;;;;;;;;;;;;;;;;;;;
2024/01/04 14:02:56;;;;;;;;;;;;;;;;;;;;;
2024/01/04 14:05:54;;;;;;;18.88;2.92;;;;;;;;;;5756497;24;20027;-88
2024/01/04 14:08:45;;;;;;;20.40;3.53;;;;;;;;;;5792126;24;20035;-86
2024/01/04 14:11:12;;;;;;;27.58;5.25;;;;;;;;;;5798157;24;20450;-86
2024/01/04 14:13:46;;;;;;;25.73;5.40;;;;;;;;;;5809486;24;20106;-87
2024/01/04 14:16:22;;;;;;;29.00;3.80;;;;;;;;;;5792856;24;20046;-87
2024/01/04 14:19:21;;;;;;;22.85;3.25;;;;;;;;;;5809737;24;20525;-88
2024/01/04 14:21:56;;;;;;;25.92;3.00;;;;;;;;;;5792873;24;20034;-87
2024/01/04 14:24:53;;;;;;;25.35;3.63;;;;;;;;;;5820852;24;20023;-88
2024/01/04 14:27:37;;;;;;;23.30;2.80;;;;;;;;;;5827015;24;20022;-88
2024/01/04 14:30:16;;;;;;;30.23;3.78;;;;;;;;;;5815224;24;20033;-88
2024/01/04 14:33:03;;;;;;;25.55;2.90;;;;;;;;;;5808285;24;20022;-87
2024/01/04 14:36:17;;;;;;;20.00;2.20;;;;;;;;;;5800480;24;20101;-88
2024/01/04 14:39:13;;;;;;;25.35;3.70;;;;;;;;;;5840766;24;20096;-88
2024/01/04 14:42:31;;;;;;;;;;;;;;;;;;;;;
2024/01/04 14:45:30;;;;;;;;;;;;;;;;;;;;;
2024/01/04 14:48:22;;;;;;;16.55;2.00;;;;;;;;;;6047732;23;20019;-88
2024/01/04 14:51:33;;;;;;;20.20;2.65;;;;;;;;;;6108814;23;20018;-88
2024/01/04 15:00:58;;;;;;;16.25;2.45;;;;;;;;;;6064384;23;20081;-88
2024/01/04 15:03:52;;;;;;;15.63;2.88;;;;;;;;;;6093802;23;20029;-87
2024/01/04 15:06:44;;;;;;;22.38;2.75;;;;;;;;;;6075004;23;20029;-87
2024/01/04 15:09:55;;;;;;;15.95;2.40;;;;;;;;;;6084214;23;20017;-87
2024/01/04 15:12:39;;;;;;;12.55;1.85;;;;;;;;;;6065872;23;20033;-87
2024/01/04 15:15:51;;;;;;;16.83;1.60;;;;;;;;;;6100940;23;20025;-88
2024/01/04 15:18:33;;;;;;;15.27;2.40;;;;;;;;;;6066596;23;20026;-87
2024/01/04 15:21:00;;;;;;;17.98;2.95;;;;;;;;;;6083571;23;20018;-86
2024/01/04 15:23:27;;;;;;;19.15;2.80;;;;;;;;;;6152350;23;20100;-86
2024/01/04 15:25:54;;;;;;;20.25;3.55;;;;;;;;;;6125053;23;20028;-86
2024/01/04 15:28:21;;;;;;;24.20;3.78;;;;;;;;;;6091449;23;20109;-86
2024/01/04 15:30:48;;;;;;;16.52;2.75;;;;;;;;;;6154596;23;20028;-87
2024/01/04 15:33:15;;;;;;;15.23;2.65;;;;;;;;;;6111262;23;20025;-87
2024/01/04 15:36:02;;;;;;;;;;;;;;;;;;6130125;23;20028;-87
2024/01/04 15:38:43;;;;;;;17.08;2.67;;;;;;;;;;6107188;23;19923;-86
2024/01/04 15:41:10;;;;;;;18.05;2.75;;;;;;;;;;6127227;23;20482;-86
2024/01/04 15:43:37;;;;;;;16.15;2.22;;;;;;;;;;6094747;23;20371;-88
2024/01/04 15:46:09;;;;;;;16.52;2.70;;;;;;;;;;6073280;23;20021;-86
2024/01/04 15:48:41;;;;;;;17.70;2.15;;;;;;;;;;6105558;23;20017;-85
2024/01/04 15:51:10;;;;;;;14.90;3.28;;;;;;;;;;6104086;23;20064;-87
2024/01/04 15:53:43;;;;;;;17.50;2.28;;;;;;;;;;6110286;23;20021;-86
2024/01/04 15:56:22;;;;;;;15.40;2.60;;;;;;;;;;6123997;23;20045;-87
2024/01/04 15:58:53;;;;;;;16.80;5.15;;;;;;;;;;6104454;23;20100;-87
2024/01/04 16:01:23;;;;;;;18.77;3.05;;;;;;;;;;6104401;23;25139;-87
2024/01/04 16:03:57;;;;;;;14.90;2.60;;;;;;;;;;6104988;23;20018;-87
2024/01/04 16:06:27;;;;;;;15.32;2.22;;;;;;;;;;6104220;23;20017;-87
2024/01/04 16:08:58;;;;;;;16.92;2.70;;;;;;;;;;6104519;23;20017;-87
2024/01/04 16:11:33;;;;;;;19.35;2.20;;;;;;;;;;6083319;23;20134;-86
2024/01/04 16:14:06;;;;;;;21.35;5.22;;;;;;;;;;6126508;23;20026;-86
2024/01/04 16:16:33;;;;;;;18.80;5.70;;;;;;;;;;6113532;23;20022;-86
2024/01/04 16:19:02;;;;;;;24.85;4.40;;;;;;;;;;6153487;23;20021;-87
2024/01/04 16:21:32;;;;;;;15.75;3.55;;;;;;;;;;6122541;23;20323;-88
2024/01/04 16:24:34;;;;;;;14.85;4.07;;;;;;;;;;6128716;23;20084;-87
2024/01/04 16:27:04;;;;;;;14.80;2.90;;;;;;;;;;6120197;23;20034;-91
2024/01/04 16:29:36;;;;;;;16.10;5.40;;;;;;;;;;6118643;23;20017;-87
2024/01/04 16:32:20;;;;;;;15.77;2.35;;;;;;;;;;6133973;23;20048;-87
2024/01/04 16:34:58;;;;;;;15.43;5.13;;;;;;;;;;6150770;23;20071;-86
2024/01/04 16:37:27;;;;;;;24.05;5.55;;;;;;;;;;6133420;23;20041;-87
2024/01/04 16:39:58;;;;;;;19.95;4.05;;;;;;;;;;6134667;23;20027;-87
2024/01/04 16:42:29;;;;;;;14.65;2.92;;;;;;;;;;6157510;23;20077;-87
2024/01/04 16:45:06;;;;;;;7.05;1.55;;;;;;;;;;6136745;23;20013;-86
2024/01/04 16:47:46;;;;;;;9.90;1.83;;;;;;;;;;6134990;23;20091;-88
2024/01/04 16:50:15;;;;;;;9.18;1.50;;;;;;;;;;6133653;23;20021;-88
2024/01/04 16:52:51;;;;;;;18.85;1.65;;;;;;;;;;6134093;23;20027;-87
2024/01/04 16:56:01;;;;;;;13.48;2.58;;;;;;;;;;6152718;23;20028;-87
2024/01/04 16:58:31;;;;;;;17.10;4.55;;;;;;;;;;6145716;23;20029;-88
2024/01/04 17:01:06;;;;;;;18.00;1.83;;;;;;;;;;6122018;23;20497;-89
2024/01/04 17:03:42;;;;;;;16.50;3.70;;;;;;;;;;6112050;23;20021;-87
2024/01/04 17:06:11;;;;;;;16.35;2.50;;;;;;;;;;6114708;23;20014;-88
2024/01/04 17:08:40;;;;;;;18.30;4.55;;;;;;;;;;6158840;23;20092;-88
2024/01/04 17:11:12;;;;;;;18.08;5.80;;;;;;;;;;6128934;23;20024;-86
2024/01/04 17:13:39;;;;;;;15.52;2.10;;;;;;;;;;6134325;23;20107;-87
2024/01/04 17:16:08;;;;;;;14.48;3.58;;;;;;;;;;6116161;23;20018;-87
2024/01/04 17:18:37;;;;;;;15.32;1.77;;;;;;;;;;6128793;23;20022;-87
2024/01/04 17:21:09;;;;;;;16.00;1.90;;;;;;;;;;6129729;23;20022;-87
2024/01/04 17:23:36;;;;;;;10.27;1.48;;;;;;;;;;6113772;23;20022;-87
2024/01/04 17:26:07;;;;;;;8.23;1.27;;;;;;;;;;6128727;23;20025;-87
2024/01/04 17:28:46;;;;;;;16.67;1.42;;;;;;;;;;6115936;23;20512;-88
2024/01/04 17:31:14;;;;;;;12.60;1.63;;;;;;;;;;6116304;23;20447;-87
2024/01/04 17:33:45;;;;;;;17.13;2.35;;;;;;;;;;6116225;23;20022;-87
2024/01/04 17:36:16;;;;;;;8.45;1.30;;;;;;;;;;6129022;23;20028;-88
2024/01/04 17:38:57;;;;;;;10.82;1.63;;;;;;;;;;6131814;23;20021;-88
2024/01/04 17:41:29;;;;;;;9.38;1.20;;;;;;;;;;6129357;23;20021;-87
2024/01/04 17:44:07;;;;;;;16.10;2.08;;;;;;;;;;6129462;23;20076;-87
2024/01/04 17:46:49;;;;;;;12.52;1.73;;;;;;;;;;6107546;23;20091;-88
2024/01/04 17:49:18;;;;;;;13.40;1.85;;;;;;;;;;6124391;23;20017;-87
2024/01/04 17:52:08;;;;;;;13.40;1.95;;;;;;;;;;6135386;23;20052;-87
2024/01/04 17:54:49;;;;;;;14.35;1.77;;;;;;;;;;6125254;23;20009;-87
2024/01/04 17:57:18;;;;;;;12.00;2.10;;;;;;;;;;6139183;23;20013;-88
2024/01/04 17:59:48;;;;;;;17.40;2.20;;;;;;;;;;6131817;23;20017;-88
2024/01/04 18:02:15;;;;;;;17.40;2.13;;;;;;;;;;6091726;23;20439;-87
2024/01/04 18:04:43;;;;;;;9.40;1.67;;;;;;;;;;6128326;23;20021;-87
2024/01/04 18:07:15;;;;;;;11.02;2.17;;;;;;;;;;6103714;23;20321;-86
2024/01/04 18:09:42;;;;;;;12.82;2.30;;;;;;;;;;6104116;23;20033;-88
2024/01/04 18:12:11;;;;;;;17.70;2.70;;;;;;;;;;6117195;23;20021;-87
2024/01/04 18:14:43;;;;;;;14.50;1.50;;;;;;;;;;6133658;23;20017;-87
2024/01/04 18:17:35;;;;;;;17.02;2.15;;;;;;;;;;6078797;23;20017;-88
2024/01/04 18:20:12;;;;;;;12.07;1.60;;;;;;;;;;6116942;23;20020;-88
2024/01/04 18:22:40;;;;;;;13.80;1.80;;;;;;;;;;6075815;23;20032;-87
2024/01/04 18:25:27;;;;;;;9.68;1.77;;;;;;;;;;6083776;23;20022;-86
2024/01/04 18:28:32;;;;;;;13.10;1.60;;;;;;;;;;6082904;23;20013;-87
2024/01/04 18:31:13;;;;;;;10.00;1.17;;;;;;;;;;6079098;23;20412;-87
2024/01/04 18:34:03;;;;;;;14.07;2.00;;;;;;;;;;6113132;23;20449;-87
2024/01/04 18:36:45;;;;;;;10.93;1.65;;;;;;;;;;6139641;23;20076;-87
2024/01/04 18:39:22;;;;;;;17.27;2.88;;;;;;;;;;6093627;23;20028;-87
2024/01/04 18:42:23;;;;;;;12.02;1.45;;;;;;;;;;6106382;23;20017;-87
2024/01/04 18:45:13;;;;;;;6.80;1.42;;;;;;;;;;6106298;23;20021;-87
2024/01/04 18:47:45;;;;;;;10.32;2.85;;;;;;;;;;6103641;23;20072;-87
2024/01/04 18:50:15;;;;;;;11.35;2.50;;;;;;;;;;6091427;23;20074;-87
2024/01/04 18:52:42;;;;;;;9.43;1.30;;;;;;;;;;6105461;23;20022;-87
2024/01/04 18:55:21;;;;;;;9.80;1.98;;;;;;;;;;6090639;23;20021;-87
2024/01/04 18:58:07;;;;;;;14.32;1.88;;;;;;;;;;6109586;23;20497;-83
2024/01/04 19:00:41;;;;;;;11.40;1.83;;;;;;;;;;6130226;23;20024;-87
2024/01/04 19:03:12;;;;;;;17.25;1.98;;;;;;;;;;6077207;23;20093;-88
2024/01/04 19:05:43;;;;;;;10.48;2.00;;;;;;;;;;6114389;23;20024;-87
2024/01/04 19:08:23;;;;;;;12.88;2.05;;;;;;;;;;6133801;23;20071;-88
2024/01/04 19:10:51;;;;;;;11.05;1.55;;;;;;;;;;6117801;23;20017;-87
2024/01/04 19:13:18;;;;;;;19.95;6.70;;;;;;;;;;6113640;23;20014;-87
2024/01/04 19:15:44;;;;;;;45.60;19.73;;;;;;;;;;6115542;23;20462;-86
2024/01/04 19:22:22;;;;;;;40.15;18.85;;;;;;;;;;6050773;23;20022;-88
2024/01/04 19:58:54;;;;;;;4.30;1.13;;;;;;;;;;6180129;22;20326;-87
2024/01/04 20:42:23;;;;;;;11.68;5.47;;;;;;;;;;6234093;22;20021;-85
2024/01/04 21:50:48;;;;;;;9.43;4.25;;;;;;;;;;6194648;22;20429;-94
